Wednesday, January 22, 2014

Sunrise in Barrow

The sun rose in Barrow today for the first time since November 19th last year (64 days). It was up from 1:29 p.m. to 1:51 p.m. Below is the FAA webcam picture looking south at 1:31 p.m. – 2 minutes after sunrise. Here is the only METAR from when the sun was up: 

Site M/A Day Time Sky Conditions           VIS Weather Temp DP Wind(kt)  Alt  RH  Chill Peak
PABR  MP 22 1349  OVC055                     3 BS-       0  -8 06018     997  68% -22    

(PABR 222249Z 06018KT 3SM BLSN OVC055 M18/M22 A2997=)

No comments:

Post a Comment